createdAt,value
2017-01-24T00:00:46.022Z,0
2017-01-24T00:01:58.042Z,0
2017-01-24T00:03:07.652Z,0
2017-01-24T00:04:18.281Z,0
2017-01-24T00:05:30.695Z,0
2017-01-24T00:06:42.483Z,0
2017-01-24T00:07:53.919Z,0
2017-01-24T00:09:04.963Z,0
2017-01-24T00:10:15.515Z,0
2017-01-24T00:11:28.925Z,0
2017-01-24T00:12:40.321Z,0
2017-01-24T00:13:52.653Z,0
2017-01-24T00:15:05.031Z,0
2017-01-24T00:16:15.078Z,0
2017-01-24T00:17:28.323Z,0
2017-01-24T00:18:42.628Z,0
2017-01-24T00:19:54.147Z,0
2017-01-24T00:21:03.862Z,0
2017-01-24T00:22:16.709Z,0
2017-01-24T00:23:28.361Z,0
2017-01-24T00:24:39.888Z,0
2017-01-24T00:25:52.906Z,0
2017-01-24T00:27:03.013Z,0
2017-01-24T00:28:12.896Z,0
2017-01-24T00:29:24.370Z,0
2017-01-24T00:30:36.048Z,0
2017-01-24T00:31:46.650Z,0
2017-01-24T00:32:57.137Z,0
2017-01-24T00:34:07.497Z,0
2017-01-24T00:35:16.448Z,0
2017-01-24T00:36:27.789Z,0
2017-01-24T00:37:38.707Z,0
2017-01-24T00:38:49.997Z,0
2017-01-24T00:39:59.644Z,0
2017-01-24T00:41:12.545Z,0
2017-01-24T00:42:24.312Z,0
2017-01-24T00:43:36.645Z,0
2017-01-24T00:44:46.716Z,0
2017-01-24T00:45:56.428Z,0
2017-01-24T00:47:06.896Z,0
2017-01-24T00:48:15.845Z,0
2017-01-24T00:49:28.507Z,0
2017-01-24T00:50:39.058Z,0
2017-01-24T00:51:48.951Z,0
2017-01-24T00:53:00.373Z,0
2017-01-24T00:54:10.427Z,0
2017-01-24T00:55:22.709Z,0
2017-01-24T00:56:32.562Z,0
2017-01-24T00:57:45.283Z,0
2017-01-24T00:58:54.391Z,0
2017-01-24T01:00:06.537Z,0
2017-01-24T01:01:15.490Z,0
2017-01-24T01:02:24.520Z,0
2017-01-24T01:03:34.614Z,0
2017-01-24T01:04:43.686Z,0
2017-01-24T01:05:52.640Z,0
2017-01-24T01:07:01.598Z,0
2017-01-24T01:08:10.548Z,0
2017-01-24T01:09:19.504Z,0
2017-01-24T01:10:28.456Z,0
2017-01-24T01:11:37.416Z,0
2017-01-24T01:12:46.455Z,0
2017-01-24T01:13:55.406Z,0
2017-01-24T01:15:04.361Z,0
2017-01-24T01:16:13.314Z,0
2017-01-24T01:17:22.285Z,0
2017-01-24T01:18:31.229Z,0
2017-01-24T01:19:40.177Z,0
2017-01-24T01:20:49.130Z,0
2017-01-24T01:21:58.084Z,0
2017-01-24T01:23:07.040Z,0
2017-01-24T01:24:16.081Z,0
2017-01-24T01:25:25.473Z,0
2017-01-24T01:26:34.456Z,0
2017-01-24T01:27:43.416Z,0
2017-01-24T01:28:52.369Z,0
2017-01-24T01:30:01.325Z,0
2017-01-24T01:31:10.363Z,0
2017-01-24T01:32:19.308Z,0
2017-01-24T01:33:28.262Z,0
2017-01-24T01:34:37.216Z,0
2017-01-24T01:35:46.170Z,0
2017-01-24T01:36:55.119Z,0
2017-01-24T01:38:04.161Z,0
2017-01-24T01:39:13.119Z,0
2017-01-24T01:40:22.075Z,0
2017-01-24T01:41:31.020Z,0
2017-01-24T01:42:40.059Z,0
2017-01-24T01:43:49.014Z,0
2017-01-24T01:44:57.963Z,0
2017-01-24T01:46:06.942Z,0
2017-01-24T01:47:15.899Z,0
2017-01-24T01:48:24.847Z,0
2017-01-24T01:49:33.825Z,0
2017-01-24T01:50:42.777Z,0
2017-01-24T01:51:51.725Z,0
2017-01-24T01:53:00.673Z,0
2017-01-24T01:54:09.626Z,0
2017-01-24T01:55:18.673Z,0
2017-01-24T01:56:27.624Z,0
2017-01-24T01:57:36.572Z,0
2017-01-24T01:58:45.527Z,0
2017-01-24T01:59:54.481Z,0
2017-01-24T02:01:03.433Z,0
2017-01-24T02:02:12.382Z,0
2017-01-24T02:03:21.329Z,0
2017-01-24T02:04:30.370Z,0
2017-01-24T02:05:39.324Z,0
2017-01-24T02:06:48.273Z,0
2017-01-24T02:07:57.726Z,0
2017-01-24T02:09:06.682Z,0
2017-01-24T02:10:15.647Z,0
2017-01-24T02:11:24.600Z,0
2017-01-24T02:12:33.546Z,0
2017-01-24T02:13:42.506Z,0
2017-01-24T02:14:51.455Z,0
2017-01-24T02:16:00.436Z,0
2017-01-24T02:17:09.389Z,0
2017-01-24T02:18:18.344Z,0
2017-01-24T02:19:27.292Z,0
2017-01-24T02:20:36.270Z,0
2017-01-24T02:21:45.219Z,0
2017-01-24T02:22:54.175Z,0
2017-01-24T02:24:03.128Z,0
2017-01-24T02:25:12.072Z,0
2017-01-24T02:26:21.028Z,0
2017-01-24T02:27:30.005Z,0
2017-01-24T02:28:38.960Z,0
2017-01-24T02:29:47.999Z,0
2017-01-24T02:30:56.957Z,0
2017-01-24T02:32:05.912Z,0
2017-01-24T02:33:14.871Z,0
2017-01-24T02:34:23.825Z,0
2017-01-24T02:35:32.792Z,0
2017-01-24T02:36:41.830Z,0
2017-01-24T02:37:50.779Z,0
2017-01-24T02:38:59.733Z,0
2017-01-24T02:40:08.690Z,0
2017-01-24T02:41:17.641Z,0
2017-01-24T02:42:26.685Z,0
2017-01-24T02:43:35.736Z,0
2017-01-24T02:44:44.690Z,0
2017-01-24T02:45:53.638Z,0
2017-01-24T02:47:02.586Z,0
2017-01-24T02:48:11.542Z,0
2017-01-24T02:49:20.499Z,0
2017-01-24T02:50:29.456Z,0
2017-01-24T02:51:38.493Z,0
2017-01-24T02:52:47.532Z,0
2017-01-24T02:53:56.484Z,0
2017-01-24T02:55:05.457Z,0
2017-01-24T02:56:14.433Z,0
2017-01-24T02:57:23.394Z,0
2017-01-24T02:58:32.346Z,0
2017-01-24T02:59:41.297Z,0
2017-01-24T03:00:50.254Z,0
2017-01-24T03:01:59.205Z,0
2017-01-24T03:03:08.159Z,0
2017-01-24T03:04:17.118Z,0
2017-01-24T03:05:26.071Z,0
2017-01-24T03:06:35.021Z,0
2017-01-24T03:07:43.980Z,0
2017-01-24T03:08:52.932Z,0
2017-01-24T03:10:01.893Z,0
2017-01-24T03:11:10.847Z,0
2017-01-24T03:12:19.799Z,0
2017-01-24T03:13:28.758Z,0
2017-01-24T03:14:37.708Z,0
2017-01-24T03:15:46.660Z,0
2017-01-24T03:16:55.611Z,0
2017-01-24T03:18:04.565Z,0
2017-01-24T03:19:13.511Z,0
2017-01-24T03:20:22.461Z,0
2017-01-24T03:21:31.419Z,0
2017-01-24T03:22:40.374Z,0
2017-01-24T03:23:49.327Z,0
2017-01-24T03:24:58.276Z,0
2017-01-24T03:26:07.233Z,0
2017-01-24T03:27:16.188Z,0
2017-01-24T03:28:25.139Z,0
2017-01-24T03:29:34.090Z,0
2017-01-24T03:30:43.050Z,0
2017-01-24T03:31:52.003Z,0
2017-01-24T03:33:00.959Z,0
2017-01-24T03:34:09.919Z,0
2017-01-24T03:35:18.873Z,0
2017-01-24T03:36:27.827Z,0
2017-01-24T03:37:36.779Z,0
2017-01-24T03:38:45.730Z,0
2017-01-24T03:39:54.680Z,0
2017-01-24T03:41:03.630Z,0
2017-01-24T03:42:12.592Z,0
2017-01-24T03:43:21.548Z,0
2017-01-24T03:44:30.499Z,0
2017-01-24T03:45:39.451Z,0
2017-01-24T03:46:48.403Z,0
2017-01-24T03:47:57.351Z,0
2017-01-24T03:49:06.303Z,0
2017-01-24T03:50:15.258Z,0
2017-01-24T03:51:24.208Z,0
2017-01-24T03:52:33.154Z,0
2017-01-24T03:53:42.112Z,0
2017-01-24T03:54:51.072Z,0
2017-01-24T03:56:00.022Z,0
2017-01-24T03:57:08.972Z,0
2017-01-24T03:58:18.015Z,0
2017-01-24T03:59:26.963Z,0
2017-01-24T04:00:35.912Z,0
2017-01-24T04:01:44.870Z,0
2017-01-24T04:02:53.823Z,0
2017-01-24T04:04:02.781Z,0
2017-01-24T04:05:11.734Z,0
2017-01-24T04:06:20.702Z,0
2017-01-24T04:07:29.655Z,0
2017-01-24T04:08:38.605Z,0
2017-01-24T04:09:47.554Z,0
2017-01-24T04:10:56.508Z,0
2017-01-24T04:12:05.459Z,0
2017-01-24T04:13:14.499Z,0
2017-01-24T04:14:23.454Z,0
2017-01-24T04:15:32.408Z,0
2017-01-24T04:16:41.447Z,0
2017-01-24T04:17:50.401Z,0
2017-01-24T04:18:59.348Z,0
2017-01-24T04:20:08.300Z,0
2017-01-24T04:21:17.252Z,0
2017-01-24T04:22:26.292Z,0
2017-01-24T04:23:35.249Z,0
2017-01-24T04:24:44.201Z,0
2017-01-24T04:25:53.168Z,0
2017-01-24T04:27:02.119Z,0
2017-01-24T04:28:11.079Z,0
2017-01-24T04:29:20.033Z,0
2017-01-24T04:30:28.984Z,0
2017-01-24T04:31:38.026Z,0
2017-01-24T04:32:46.990Z,0
2017-01-24T04:33:55.965Z,0
2017-01-24T04:35:04.911Z,0
2017-01-24T04:36:13.951Z,0
2017-01-24T04:37:22.908Z,0
2017-01-24T04:38:31.862Z,0
2017-01-24T04:39:40.824Z,0
2017-01-24T04:40:49.771Z,0
2017-01-24T04:41:58.718Z,0
2017-01-24T04:43:07.672Z,0
2017-01-24T04:44:16.622Z,0
2017-01-24T04:45:25.573Z,0
2017-01-24T04:46:34.533Z,0
2017-01-24T04:47:43.570Z,0
2017-01-24T04:48:52.555Z,0
2017-01-24T04:50:01.609Z,0
2017-01-24T04:51:10.564Z,0
2017-01-24T04:52:19.519Z,0
2017-01-24T04:53:28.470Z,0
2017-01-24T04:54:37.420Z,0
2017-01-24T04:55:46.367Z,0
2017-01-24T04:56:55.321Z,0
2017-01-24T04:58:04.277Z,0
2017-01-24T04:59:13.229Z,0
2017-01-24T05:00:22.176Z,0
2017-01-24T05:01:31.132Z,0
2017-01-24T05:02:40.111Z,0
2017-01-24T05:03:49.058Z,0
2017-01-24T05:04:58.183Z,0
2017-01-24T05:06:07.133Z,0
2017-01-24T05:07:16.083Z,0
2017-01-24T05:08:25.125Z,0
2017-01-24T05:09:34.072Z,0
2017-01-24T05:10:43.029Z,0
2017-01-24T05:11:51.988Z,0
2017-01-24T05:13:00.990Z,0
2017-01-24T05:14:09.966Z,0
2017-01-24T05:15:18.915Z,0
2017-01-24T05:16:27.871Z,0
2017-01-24T05:17:36.821Z,0
2017-01-24T05:18:45.768Z,0
2017-01-24T05:19:54.803Z,0
2017-01-24T05:21:03.775Z,0
2017-01-24T05:22:12.723Z,0
2017-01-24T05:23:21.675Z,0
2017-01-24T05:24:30.632Z,0
2017-01-24T05:25:39.578Z,0
2017-01-24T05:26:48.534Z,0
2017-01-24T05:27:57.485Z,0
2017-01-24T05:29:06.439Z,0
2017-01-24T05:30:15.395Z,0
2017-01-24T05:31:24.343Z,0
2017-01-24T05:32:33.298Z,0
2017-01-24T05:33:42.248Z,0
2017-01-24T05:34:51.197Z,0
2017-01-24T05:36:00.152Z,0
2017-01-24T05:37:09.138Z,0
2017-01-24T05:38:18.096Z,0
2017-01-24T05:39:27.076Z,0
2017-01-24T05:40:36.032Z,0
2017-01-24T05:41:44.984Z,0
2017-01-24T05:42:53.951Z,0
2017-01-24T05:44:02.898Z,0
2017-01-24T05:45:11.848Z,0
2017-01-24T05:46:20.802Z,0
2017-01-24T05:47:29.752Z,0
2017-01-24T05:48:38.707Z,0
2017-01-24T05:49:47.747Z,0
2017-01-24T05:50:56.706Z,0
2017-01-24T05:52:05.662Z,0
2017-01-24T05:53:14.636Z,0
2017-01-24T05:54:23.585Z,0
2017-01-24T05:55:32.534Z,0
2017-01-24T05:56:41.488Z,0
2017-01-24T05:57:50.439Z,0
2017-01-24T05:58:59.396Z,0
2017-01-24T06:00:08.349Z,0
2017-01-24T06:01:17.300Z,0
2017-01-24T06:02:26.251Z,0
2017-01-24T06:03:35.206Z,0
2017-01-24T06:04:44.169Z,0
2017-01-24T06:05:53.220Z,0
2017-01-24T06:07:02.176Z,0
2017-01-24T06:08:11.126Z,0
2017-01-24T06:09:20.079Z,0
2017-01-24T06:10:29.112Z,0
2017-01-24T06:11:38.065Z,0
2017-01-24T06:12:47.102Z,0
2017-01-24T06:13:56.049Z,0
2017-01-24T06:15:05.003Z,0
2017-01-24T06:16:13.975Z,0
2017-01-24T06:17:23.013Z,0
2017-01-24T06:18:31.968Z,0
2017-01-24T06:19:40.924Z,0
2017-01-24T06:20:49.881Z,0
2017-01-24T06:21:58.918Z,0
2017-01-24T06:23:07.870Z,0
2017-01-24T06:24:16.843Z,0
2017-01-24T06:25:25.792Z,0
2017-01-24T06:26:35.156Z,0
2017-01-24T06:27:44.107Z,0
2017-01-24T06:28:53.057Z,0
2017-01-24T06:30:02.014Z,0
2017-01-24T06:31:10.974Z,0
2017-01-24T06:32:19.922Z,0
2017-01-24T06:33:28.876Z,0
2017-01-24T06:34:37.835Z,0
2017-01-24T06:35:46.794Z,4
2017-01-24T06:36:55.746Z,4
2017-01-24T06:38:04.698Z,4
2017-01-24T06:39:13.651Z,0
2017-01-24T06:40:22.599Z,4
2017-01-24T06:41:31.556Z,4
2017-01-24T06:42:40.510Z,4
2017-01-24T06:43:49.459Z,4
2017-01-24T06:44:58.411Z,4
2017-01-24T06:46:07.372Z,8
2017-01-24T06:47:16.409Z,4
2017-01-24T06:48:25.358Z,8
2017-01-24T06:49:34.309Z,8
2017-01-24T06:50:43.260Z,8
2017-01-24T06:51:52.215Z,12
2017-01-24T06:53:01.167Z,12
2017-01-24T06:54:10.115Z,12
2017-01-24T06:55:19.073Z,16
2017-01-24T06:56:28.026Z,16
2017-01-24T06:57:36.980Z,16
2017-01-24T06:58:45.939Z,20
2017-01-24T06:59:54.894Z,24
2017-01-24T07:01:03.841Z,24
2017-01-24T07:02:12.797Z,24
2017-01-24T07:03:21.752Z,28
2017-01-24T07:04:30.709Z,32
2017-01-24T07:05:39.660Z,36
2017-01-24T07:06:48.615Z,40
2017-01-24T07:07:57.570Z,40
2017-01-24T07:09:06.518Z,40
2017-01-24T07:10:15.472Z,44
2017-01-24T07:11:24.513Z,48
2017-01-24T07:12:33.612Z,52
2017-01-24T07:13:42.907Z,56
2017-01-24T07:14:51.945Z,64
2017-01-24T07:16:00.896Z,68
2017-01-24T07:17:09.938Z,68
2017-01-24T07:18:19.519Z,76
2017-01-24T07:19:29.651Z,80
2017-01-24T07:20:39.211Z,80
2017-01-24T07:21:49.145Z,84
2017-01-24T07:22:58.781Z,88
2017-01-24T07:24:08.337Z,88
2017-01-24T07:25:17.981Z,84
2017-01-24T07:26:27.412Z,88
2017-01-24T07:27:36.363Z,92
2017-01-24T07:28:45.315Z,96
2017-01-24T07:29:54.355Z,108
2017-01-24T07:31:06.151Z,108
2017-01-24T07:32:16.187Z,116
2017-01-24T07:33:25.413Z,124
2017-01-24T07:34:34.367Z,136
2017-01-24T07:35:44.985Z,148
2017-01-24T07:36:56.328Z,152
2017-01-24T07:38:06.610Z,164
2017-01-24T07:39:16.838Z,176
2017-01-24T07:40:26.493Z,188
2017-01-24T07:41:37.577Z,208
2017-01-24T07:42:47.981Z,236
2017-01-24T07:43:57.529Z,228
2017-01-24T07:45:08.194Z,232
2017-01-24T07:46:17.910Z,228
2017-01-24T07:47:26.867Z,232
2017-01-24T07:48:38.426Z,232
2017-01-24T07:49:50.806Z,232
2017-01-24T07:51:01.707Z,236
2017-01-24T07:52:11.741Z,244
2017-01-24T07:53:22.523Z,244
2017-01-24T07:54:32.745Z,236
2017-01-24T07:55:42.479Z,232
2017-01-24T07:56:52.165Z,244
2017-01-24T07:58:01.786Z,260
2017-01-24T07:59:11.880Z,272
2017-01-24T08:00:22.103Z,276
2017-01-24T08:01:31.244Z,280
2017-01-24T08:02:40.511Z,288
2017-01-24T08:03:51.080Z,280
2017-01-24T08:05:00.312Z,276
2017-01-24T08:06:10.443Z,264
2017-01-24T08:07:19.754Z,272
2017-01-24T08:08:28.708Z,288
2017-01-24T08:09:37.664Z,292
2017-01-24T08:10:46.750Z,320
2017-01-24T08:11:55.701Z,348
2017-01-24T08:13:04.663Z,368
2017-01-24T08:14:13.789Z,388
2017-01-24T08:15:23.180Z,424
2017-01-24T08:16:32.137Z,388
2017-01-24T08:17:41.192Z,404
2017-01-24T08:18:50.226Z,392
2017-01-24T08:20:00.035Z,392
2017-01-24T08:21:08.988Z,456
2017-01-24T08:22:18.108Z,456
2017-01-24T08:23:27.250Z,416
2017-01-24T08:24:36.232Z,404
2017-01-24T08:25:45.195Z,412
2017-01-24T08:26:54.146Z,424
2017-01-24T08:28:03.103Z,436
2017-01-24T08:29:12.180Z,500
2017-01-24T08:30:21.139Z,488
2017-01-24T08:31:30.090Z,452
2017-01-24T08:32:39.080Z,444
2017-01-24T08:33:48.037Z,408
2017-01-24T08:34:57.059Z,428
2017-01-24T08:36:06.012Z,392
2017-01-24T08:37:14.968Z,380
2017-01-24T08:38:23.939Z,420
2017-01-24T08:39:32.893Z,440
2017-01-24T08:40:41.849Z,492
2017-01-24T08:41:50.910Z,584
2017-01-24T08:42:59.867Z,548
2017-01-24T08:44:09.351Z,464
2017-01-24T08:45:18.717Z,432
2017-01-24T08:46:27.770Z,452
2017-01-24T08:47:36.909Z,488
2017-01-24T08:48:45.860Z,496
2017-01-24T08:49:54.816Z,480
2017-01-24T08:51:03.773Z,476
2017-01-24T08:52:12.760Z,456
2017-01-24T08:53:21.723Z,496
2017-01-24T08:54:30.669Z,672
2017-01-24T08:55:40.384Z,660
2017-01-24T08:56:49.341Z,556
2017-01-24T08:57:58.298Z,596
2017-01-24T08:59:07.256Z,528
2017-01-24T09:00:16.219Z,492
2017-01-24T09:01:25.173Z,476
2017-01-24T09:02:34.870Z,488
2017-01-24T09:03:54.900Z,500
2017-01-24T09:05:15.731Z,576
2017-01-24T09:06:31.427Z,568
2017-01-24T09:07:48.351Z,544
2017-01-24T09:09:00.807Z,604
2017-01-24T09:10:09.797Z,576
2017-01-24T09:11:20.346Z,596
2017-01-24T09:12:29.300Z,708
2017-01-24T09:13:38.257Z,628
2017-01-24T09:14:47.218Z,564
2017-01-24T09:15:56.178Z,620
2017-01-24T09:17:05.136Z,688
2017-01-24T09:18:14.092Z,700
2017-01-24T09:19:23.133Z,768
2017-01-24T09:20:32.088Z,812
2017-01-24T09:21:41.083Z,704
2017-01-24T09:22:50.029Z,676
2017-01-24T09:23:58.980Z,728
2017-01-24T09:25:07.930Z,668
2017-01-24T09:26:16.891Z,720
2017-01-24T09:27:25.850Z,724
2017-01-24T09:28:34.811Z,784
2017-01-24T09:29:43.770Z,864
2017-01-24T09:30:52.721Z,912
2017-01-24T09:32:01.673Z,848
2017-01-24T09:33:10.630Z,880
2017-01-24T09:34:19.584Z,844
2017-01-24T09:35:28.534Z,980
2017-01-24T09:36:37.482Z,1072
2017-01-24T09:37:46.438Z,1076
2017-01-24T09:38:55.396Z,1060
2017-01-24T09:40:04.716Z,1208
2017-01-24T09:41:13.675Z,1124
2017-01-24T09:42:22.631Z,1120
2017-01-24T09:43:31.582Z,1040
2017-01-24T09:44:40.653Z,1196
2017-01-24T09:45:50.459Z,1164
2017-01-24T09:46:59.415Z,1168
2017-01-24T09:48:08.607Z,1284
2017-01-24T09:49:17.895Z,1332
2017-01-24T09:50:27.024Z,1196
2017-01-24T09:51:35.980Z,1192
2017-01-24T09:52:45.418Z,1268
2017-01-24T09:53:54.371Z,1276
2017-01-24T09:55:03.712Z,1156
2017-01-24T09:56:12.666Z,1108
2017-01-24T09:57:21.955Z,1120
2017-01-24T09:58:31.014Z,1172
2017-01-24T09:59:39.968Z,1152
2017-01-24T10:00:48.915Z,1204
2017-01-24T10:01:57.863Z,1152
2017-01-24T10:03:06.814Z,1284
2017-01-24T10:04:15.763Z,1316
2017-01-24T10:05:24.720Z,1204
2017-01-24T10:06:33.847Z,1188
2017-01-24T10:07:42.843Z,1260
2017-01-24T10:08:51.892Z,1168
2017-01-24T10:10:00.850Z,1108
2017-01-24T10:11:09.808Z,1156
2017-01-24T10:12:18.764Z,1140
2017-01-24T10:13:27.722Z,1032
2017-01-24T10:14:36.672Z,988
2017-01-24T10:15:45.624Z,1024
2017-01-24T10:16:54.584Z,1084
2017-01-24T10:18:03.540Z,1132
2017-01-24T10:19:12.520Z,1176
2017-01-24T10:20:21.481Z,1192
2017-01-24T10:21:30.438Z,1184
2017-01-24T10:22:39.392Z,1164
2017-01-24T10:23:48.349Z,1144
2017-01-24T10:24:57.509Z,1136
2017-01-24T10:26:06.472Z,1176
2017-01-24T10:27:15.767Z,1192
2017-01-24T10:28:24.793Z,1104
2017-01-24T10:29:33.781Z,1040
2017-01-24T10:30:43.549Z,1052
2017-01-24T10:31:52.688Z,1084
2017-01-24T10:33:02.027Z,1036
2017-01-24T10:34:10.988Z,976
2017-01-24T10:35:19.948Z,996
2017-01-24T10:36:29.111Z,960
2017-01-24T10:37:38.158Z,976
2017-01-24T10:38:47.490Z,1080
2017-01-24T10:39:56.924Z,1084
2017-01-24T10:41:06.726Z,1044
2017-01-24T10:42:15.769Z,1056
2017-01-24T10:43:25.199Z,1060
2017-01-24T10:44:34.178Z,1120
2017-01-24T10:45:43.276Z,1112
2017-01-24T10:46:52.243Z,1116
2017-01-24T10:48:01.216Z,1200
2017-01-24T10:49:10.172Z,1156
2017-01-24T10:50:19.128Z,1076
2017-01-24T10:51:28.082Z,1092
2017-01-24T10:52:37.122Z,1148
2017-01-24T10:53:46.072Z,1196
2017-01-24T10:54:55.026Z,1064
2017-01-24T10:56:03.999Z,976
2017-01-24T10:57:12.956Z,932
2017-01-24T10:58:21.913Z,972
2017-01-24T10:59:30.897Z,1028
2017-01-24T11:00:39.854Z,1036
2017-01-24T11:01:48.807Z,1112
2017-01-24T11:02:57.890Z,1092
2017-01-24T11:04:06.943Z,1036
2017-01-24T11:05:15.911Z,1080
2017-01-24T11:06:24.866Z,1056
2017-01-24T11:07:33.896Z,1040
2017-01-24T11:08:42.850Z,1004
2017-01-24T11:09:52.273Z,992
2017-01-24T11:11:01.227Z,1020
2017-01-24T11:12:10.184Z,964
2017-01-24T11:13:19.144Z,916
2017-01-24T11:14:28.103Z,888
2017-01-24T11:15:37.141Z,892
2017-01-24T11:16:46.919Z,888
2017-01-24T11:17:56.420Z,880
2017-01-24T11:19:05.398Z,896
2017-01-24T11:20:14.353Z,912
2017-01-24T11:21:23.314Z,908
2017-01-24T11:22:32.383Z,936
2017-01-24T11:23:41.367Z,1004
2017-01-24T11:24:50.324Z,1136
2017-01-24T11:25:59.280Z,1068
2017-01-24T11:27:08.232Z,968
2017-01-24T11:28:17.190Z,948
2017-01-24T11:29:26.145Z,908
2017-01-24T11:30:35.096Z,900
2017-01-24T11:31:44.047Z,964
2017-01-24T11:32:53.002Z,964
2017-01-24T11:34:02.045Z,960
2017-01-24T11:35:11.003Z,956
2017-01-24T11:36:19.961Z,912
2017-01-24T11:37:29.015Z,900
2017-01-24T11:38:37.970Z,904
2017-01-24T11:39:46.924Z,956
2017-01-24T11:40:55.880Z,980
2017-01-24T11:42:04.863Z,1084
2017-01-24T11:43:13.819Z,960
2017-01-24T11:44:22.773Z,876
2017-01-24T11:45:31.729Z,876
2017-01-24T11:46:40.694Z,832
2017-01-24T11:47:49.653Z,832
2017-01-24T11:48:58.609Z,860
2017-01-24T11:50:07.566Z,880
2017-01-24T11:51:16.519Z,920
2017-01-24T11:52:25.477Z,912
2017-01-24T11:53:34.434Z,916
2017-01-24T11:54:43.392Z,948
2017-01-24T11:55:52.934Z,880
2017-01-24T11:57:02.153Z,864
2017-01-24T11:58:13.787Z,912
2017-01-24T11:59:23.511Z,900
2017-01-24T12:00:33.859Z,956
2017-01-24T12:01:42.852Z,764
2017-01-24T12:02:52.202Z,728
2017-01-24T12:04:02.614Z,732
2017-01-24T12:05:12.070Z,812
2017-01-24T12:06:21.736Z,756
2017-01-24T12:07:32.960Z,752
2017-01-24T12:08:42.744Z,736
2017-01-24T12:09:52.665Z,740
2017-01-24T12:11:01.955Z,736
2017-01-24T12:12:11.573Z,736
2017-01-24T12:13:20.884Z,716
2017-01-24T12:14:30.371Z,724
2017-01-24T12:15:40.993Z,732
2017-01-24T12:16:49.966Z,720
2017-01-24T12:18:00.139Z,724
2017-01-24T12:19:09.625Z,728
2017-01-24T12:20:18.580Z,736
2017-01-24T12:21:27.701Z,712
2017-01-24T12:22:36.831Z,728
2017-01-24T12:23:48.131Z,696
2017-01-24T12:24:58.180Z,692
2017-01-24T12:26:07.141Z,684
2017-01-24T12:27:16.093Z,720
2017-01-24T12:28:25.631Z,708
2017-01-24T12:29:35.231Z,696
2017-01-24T12:30:46.288Z,708
2017-01-24T12:31:58.130Z,756
2017-01-24T12:33:09.411Z,744
2017-01-24T12:34:20.093Z,692
2017-01-24T12:35:30.153Z,696
2017-01-24T12:36:39.842Z,732
2017-01-24T12:37:48.795Z,764
2017-01-24T12:38:57.754Z,792
2017-01-24T12:40:06.709Z,792
2017-01-24T12:41:15.655Z,792
2017-01-24T12:42:24.609Z,868
2017-01-24T12:43:33.563Z,864
2017-01-24T12:44:42.515Z,848
2017-01-24T12:45:51.598Z,816
2017-01-24T12:47:00.553Z,812
2017-01-24T12:48:09.511Z,852
2017-01-24T12:49:18.464Z,812
2017-01-24T12:50:27.416Z,732
2017-01-24T12:51:36.376Z,684
2017-01-24T12:52:45.336Z,712
2017-01-24T12:53:54.292Z,716
2017-01-24T12:55:03.245Z,752
2017-01-24T12:56:12.291Z,760
2017-01-24T12:57:21.245Z,772
2017-01-24T12:58:30.193Z,684
2017-01-24T12:59:39.139Z,644
2017-01-24T13:00:48.097Z,648
2017-01-24T13:01:57.141Z,676
2017-01-24T13:03:06.115Z,696
2017-01-24T13:04:15.076Z,692
2017-01-24T13:05:24.030Z,680
2017-01-24T13:06:32.980Z,724
2017-01-24T13:07:41.949Z,732
2017-01-24T13:08:51.867Z,712
2017-01-24T13:10:01.063Z,708
2017-01-24T13:11:10.423Z,672
2017-01-24T13:12:19.651Z,712
2017-01-24T13:13:29.296Z,672
2017-01-24T13:14:38.626Z,676
2017-01-24T13:15:47.600Z,620
2017-01-24T13:16:57.280Z,612
2017-01-24T13:18:06.460Z,612
2017-01-24T13:19:15.477Z,576
2017-01-24T13:20:24.761Z,556
2017-01-24T13:21:34.562Z,560
2017-01-24T13:22:49.145Z,568
2017-01-24T13:23:58.788Z,596
2017-01-24T13:25:08.403Z,576
2017-01-24T13:26:18.122Z,588
2017-01-24T13:27:27.937Z,584
2017-01-24T13:28:39.030Z,576
2017-01-24T13:29:48.023Z,552
2017-01-24T13:30:56.980Z,536
2017-01-24T13:32:05.934Z,480
2017-01-24T13:33:14.892Z,452
2017-01-24T13:34:23.846Z,520
2017-01-24T13:35:32.825Z,480
2017-01-24T13:36:43.553Z,444
2017-01-24T13:37:53.299Z,440
2017-01-24T13:39:02.257Z,428
2017-01-24T13:40:11.291Z,476
2017-01-24T13:41:20.249Z,392
2017-01-24T13:42:29.205Z,372
2017-01-24T13:43:38.161Z,412
2017-01-24T13:44:47.115Z,428
2017-01-24T13:45:56.070Z,408
2017-01-24T13:47:05.030Z,392
2017-01-24T13:48:16.941Z,392
2017-01-24T13:49:27.594Z,388
2017-01-24T13:50:36.549Z,356
2017-01-24T13:51:45.530Z,328
2017-01-24T13:52:54.500Z,324
2017-01-24T13:54:03.544Z,372
2017-01-24T13:55:12.496Z,316
2017-01-24T13:56:21.451Z,304
2017-01-24T13:57:30.495Z,324
2017-01-24T13:58:39.477Z,340
2017-01-24T13:59:48.431Z,356
2017-01-24T14:00:57.387Z,372
2017-01-24T14:02:06.355Z,332
2017-01-24T14:03:15.340Z,312
2017-01-24T14:04:24.291Z,316
2017-01-24T14:05:33.249Z,312
2017-01-24T14:06:42.281Z,308
2017-01-24T14:07:52.212Z,300
2017-01-24T14:09:02.159Z,284
2017-01-24T14:10:11.114Z,260
2017-01-24T14:11:21.431Z,276
2017-01-24T14:12:31.835Z,244
2017-01-24T14:13:41.439Z,232
2017-01-24T14:14:51.118Z,216
2017-01-24T14:16:00.315Z,208
2017-01-24T14:17:09.284Z,200
2017-01-24T14:18:19.776Z,232
2017-01-24T14:19:29.489Z,256
2017-01-24T14:20:38.830Z,252
2017-01-24T14:21:48.549Z,260
2017-01-24T14:22:58.741Z,268
2017-01-24T14:24:08.305Z,252
2017-01-24T14:25:17.603Z,228
2017-01-24T14:26:26.565Z,220
2017-01-24T14:27:35.517Z,196
2017-01-24T14:28:45.730Z,196
2017-01-24T14:29:55.250Z,192
2017-01-24T14:31:04.209Z,196
2017-01-24T14:32:13.166Z,192
2017-01-24T14:33:22.354Z,184
2017-01-24T14:34:32.472Z,184
2017-01-24T14:35:41.434Z,188
2017-01-24T14:36:51.704Z,184
2017-01-24T14:38:01.016Z,184
2017-01-24T14:39:13.171Z,164
2017-01-24T14:40:24.295Z,148
2017-01-24T14:41:34.560Z,144
2017-01-24T14:42:43.807Z,140
2017-01-24T14:43:52.765Z,140
2017-01-24T14:45:01.944Z,140
2017-01-24T14:46:14.547Z,136
2017-01-24T14:47:27.026Z,128
2017-01-24T14:48:39.492Z,128
2017-01-24T14:49:50.431Z,120
2017-01-24T14:51:02.375Z,136
2017-01-24T14:52:12.543Z,120
2017-01-24T14:53:22.374Z,116
2017-01-24T14:54:32.464Z,108
2017-01-24T14:55:42.316Z,116
2017-01-24T14:56:51.307Z,104
2017-01-24T14:58:00.260Z,96
2017-01-24T14:59:09.219Z,100
2017-01-24T15:00:18.175Z,92
2017-01-24T15:01:27.148Z,92
2017-01-24T15:02:36.120Z,84
2017-01-24T15:03:45.077Z,76
2017-01-24T15:04:54.030Z,76
2017-01-24T15:06:02.986Z,72
2017-01-24T15:07:11.945Z,72
2017-01-24T15:08:20.903Z,68
2017-01-24T15:09:29.859Z,68
2017-01-24T15:10:38.906Z,68
2017-01-24T15:11:49.562Z,60
2017-01-24T15:12:59.234Z,56
2017-01-24T15:14:09.025Z,52
2017-01-24T15:15:17.979Z,52
2017-01-24T15:16:26.934Z,48
2017-01-24T15:17:35.886Z,48
2017-01-24T15:18:44.849Z,52
2017-01-24T15:19:53.803Z,52
2017-01-24T15:21:04.269Z,48
2017-01-24T15:22:14.534Z,44
2017-01-24T15:23:24.968Z,40
2017-01-24T15:24:35.456Z,36
2017-01-24T15:25:45.815Z,32
2017-01-24T15:26:55.410Z,32
2017-01-24T15:28:05.735Z,24
2017-01-24T15:29:15.416Z,24
2017-01-24T15:30:25.455Z,24
2017-01-24T15:31:35.319Z,20
2017-01-24T15:32:44.678Z,20
2017-01-24T15:33:53.632Z,20
2017-01-24T15:35:03.030Z,16
2017-01-24T15:36:12.156Z,16
2017-01-24T15:37:22.232Z,20
2017-01-24T15:38:32.857Z,20
2017-01-24T15:39:42.203Z,16
2017-01-24T15:40:51.155Z,20
2017-01-24T15:42:00.103Z,12
2017-01-24T15:43:09.091Z,12
2017-01-24T15:44:18.043Z,12
2017-01-24T15:45:26.994Z,8
2017-01-24T15:46:35.951Z,8
2017-01-24T15:47:44.907Z,8
2017-01-24T15:48:53.865Z,8
2017-01-24T15:50:02.819Z,4
2017-01-24T15:51:11.777Z,4
2017-01-24T15:52:20.735Z,4
2017-01-24T15:53:29.690Z,4
2017-01-24T15:54:38.657Z,4
2017-01-24T15:55:47.611Z,0
2017-01-24T15:56:56.567Z,0
2017-01-24T15:58:05.517Z,0
2017-01-24T15:59:14.474Z,4
2017-01-24T16:00:23.433Z,4
2017-01-24T16:01:32.393Z,0
2017-01-24T16:02:41.350Z,0
2017-01-24T16:03:50.312Z,0
2017-01-24T16:04:59.356Z,0
2017-01-24T16:06:08.314Z,0
2017-01-24T16:07:17.272Z,0
2017-01-24T16:08:26.243Z,0
2017-01-24T16:09:35.595Z,0
2017-01-24T16:10:46.263Z,0
2017-01-24T16:11:56.092Z,0
2017-01-24T16:13:06.012Z,0
2017-01-24T16:14:15.148Z,0
2017-01-24T16:15:24.750Z,0
2017-01-24T16:16:34.578Z,0
2017-01-24T16:17:44.462Z,0
2017-01-24T16:18:54.144Z,0
2017-01-24T16:20:03.585Z,0
2017-01-24T16:21:12.539Z,0
2017-01-24T16:22:21.499Z,0
2017-01-24T16:23:30.458Z,0
2017-01-24T16:24:39.413Z,0
2017-01-24T16:25:48.365Z,0